Date,TemperatureHighF,TemperatureAvgF,TemperatureLowF,DewpointHighF,DewpointAvgF,DewpointLowF,HumidityHigh,HumidityAvg,HumidityLow,PressureMaxIn,PressureMinIn,WindSpeedMaxMPH,WindSpeedAvgMPH,GustSpeedMaxMPH,PrecipitationSumIn
2012-1-1,48,39,31,30,25,15,76,58,40,30.62,30.10,14,6,23,0.00
2012-1-2,41,29,21,20,14,10,77,53,31,30.72,30.44,9,3,14,0.00
2012-1-3,52,37,24,32,25,17,83,62,46,30.45,29.98,14,5,23,0.00
2012-1-4,58,42,30,35,30,25,88,64,37,30.32,30.09,7,2,12,0.00
2012-1-5,68,46,31,40,33,27,85,65,30,30.18,29.78,9,2,15,0.00
2012-1-6,59,43,32,37,30,25,81,62,32,30.09,29.71,6,2,17,0.00
2012-1-7,44,31,21,30,24,17,88,76,54,30.20,30.09,3,0,5,0.00
2012-1-8,47,36,26,30,27,21,87,71,46,30.28,30.21,5,1,10,0.00
2012-1-9,54,34,22,34,26,19,89,74,40,30.27,30.05,6,2,12,0.00
2012-1-10,58,38,25,34,27,21,87,70,39,30.06,29.70,4,1,11,0.00
2012-1-11,40,33,23,33,25,9,88,74,56,30.08,29.61,17,6,28,0.00
2012-1-12,30,22,17,11,4,-2,73,48,27,30.11,30.02,16,7,29,0.00
2012-1-13,45,28,13,23,15,-2,73,57,39,30.10,29.93,6,2,13,0.00
2012-1-14,48,38,30,26,21,17,62,50,31,30.22,29.93,12,5,20,0.00
2012-1-15,62,46,34,34,26,20,61,47,28,30.09,29.66,16,10,25,0.00
2012-1-16,47,40,27,39,30,14,83,67,53,29.89,29.56,12,4,21,0.00
2012-1-17,29,20,12,15,10,6,80,66,48,30.36,29.87,13,6,24,0.00
2012-1-18,40,27,12,22,15,6,79,61,44,30.31,29.80,11,5,23,0.00
2012-1-19,34,22,14,22,12,6,79,64,46,30.03,29.77,7,2,14,0.00
2012-1-20,31,20,14,17,11,6,76,67,54,30.15,29.78,7,2,15,0.00
2012-1-21,35,22,9,20,12,4,81,65,47,30.18,29.57,19,8,30,0.00
2012-1-22,54,40,30,38,31,20,91,71,49,29.73,29.30,23,11,41,0.17
2012-1-23,52,37,29,32,26,21,81,65,38,29.98,29.71,7,3,17,0.16
2012-1-24,60,44,28,36,29,22,79,57,37,30.11,29.96,18,6,28,0.00
2012-1-25,49,37,24,34,29,21,88,73,50,30.15,29.90,9,2,14,0.00
2012-1-26,56,36,22,33,24,19,90,66,26,29.99,29.89,14,3,31,0.00
2012-1-27,52,39,26,31,25,19,82,58,42,30.27,29.76,13,5,23,0.00
2012-1-28,33,30,27,21,20,19,75,66,60,30.32,30.25,6,4,12,0.00
2012-1-29,58,47,21,29,23,15,80,43,23,30.25,30.01,6,2,12,0.00
2012-1-30,65,48,35,43,34,27,75,59,36,30.01,29.76,13,6,27,0.00
2012-1-31,63,47,30,44,35,23,93,68,32,30.07,29.73,7,3,15,0.00
2012-2-1,63,41,24,33,27,20,87,61,27,30.18,30.07,7,2,10,0.00
2012-2-2,62,45,29,37,28,23,80,54,29,30.19,29.96,20,5,24,0.19
2012-2-3,44,43,41,42,41,37,93,92,77,30.05,29.86,17,3,20,1.62
2012-2-4,41,35,33,39,32,29,93,89,84,30.35,29.99,10,5,21,0.25
2012-2-5,47,34,26,30,26,23,89,75,42,30.44,30.32,7,2,14,0.01
2012-2-6,52,38,23,33,28,21,91,70,41,30.32,30.12,6,2,10,0.01
2012-2-7,42,34,27,36,30,23,90,85,71,30.47,30.17,8,3,15,0.06
2012-2-8,33,29,26,28,25,22,87,84,79,30.48,30.31,6,2,12,0.02
2012-2-9,40,35,32,33,30,28,92,83,75,30.31,30.06,8,2,13,0.01
2012-2-10,32,26,16,29,17,2,91,67,42,30.51,30.06,13,5,23,0.00
2012-2-11,27,16,9,9,4,-1,79,58,38,30.73,30.51,7,3,17,0.00
2012-2-12,28,21,11,22,11,6,85,64,48,30.61,29.97,19,9,28,0.00
2012-2-13,33,30,26,31,27,22,91,87,82,29.99,29.65,17,9,29,0.01
2012-2-14,53,40,21,39,32,18,92,76,54,29.85,29.77,11,3,15,0.01
2012-2-15,41,38,31,39,35,28,94,91,85,30.14,29.76,8,3,15,0.03
2012-2-16,51,36,23,33,28,20,91,75,42,30.30,30.14,7,2,10,0.01
2012-2-17,57,42,31,41,34,27,87,72,51,30.16,30.03,7,2,13,0.01
2012-2-18,44,35,25,30,26,21,86,71,47,30.23,30.07,5,2,11,0.03
2012-2-19,52,36,20,37,28,17,90,73,51,30.09,29.85,20,6,27,0.01
2012-2-20,55,45,40,43,38,31,84,78,64,29.86,29.51,23,14,39,0.11
2012-2-21,57,42,30,33,27,23,77,59,32,29.96,29.72,12,3,23,0.04
2012-2-22,68,49,34,40,34,26,78,57,34,29.73,29.30,15,4,26,0.00
2012-2-23,51,45,34,40,32,22,83,62,44,29.93,29.23,19,7,37,0.00
2012-2-24,51,36,24,25,22,19,82,59,29,30.25,29.92,11,5,23,0.00
2012-2-25,57,39,19,31,24,16,88,60,32,30.28,29.68,24,10,38,0.00
2012-2-26,60,47,31,30,22,16,63,39,18,30.20,29.68,21,5,34,0.00
2012-2-27,53,36,23,26,21,17,79,56,34,30.46,30.15,17,6,24,0.00
2012-2-28,67,54,41,58,41,24,85,65,29,30.16,29.41,23,13,36,0.03
2012-2-29,59,46,30,35,26,19,72,48,24,29.88,29.64,17,5,29,0.01
2012-3-1,64,48,30,35,30,20,69,51,30,29.81,29.51,14,5,18,0.00
2012-3-2,55,43,28,34,25,17,83,53,23,29.99,29.56,11,5,19,0.00
2012-3-3,51,35,19,24,18,13,78,53,29,30.05,29.94,11,3,18,0.00
2012-3-4,68,48,29,35,27,17,66,46,28,30.20,29.88,19,5,33,0.00
2012-3-5,65,47,22,39,29,17,85,53,33,30.24,29.82,20,8,31,0.00
2012-3-6,71,61,54,53,43,34,67,52,38,29.83,29.62,25,14,41,0.00
2012-3-7,67,55,41,55,44,30,79,67,52,30.04,29.62,18,8,40,0.00
2012-3-8,53,38,26,30,25,19,86,62,29,30.50,30.05,8,3,17,0.11
2012-3-9,62,43,25,30,24,19,78,52,24,30.53,30.36,9,3,15,0.01
2012-3-10,63,48,32,36,30,-100,79,53,31,30.36,30.05,16,4,25,0.00
2012-3-11,51,47,45,45,42,34,91,83,55,30.04,29.72,16,5,18,0.06
2012-3-12,82,58,44,50,43,34,94,67,18,29.92,29.67,9,3,21,0.01
2012-3-13,79,61,43,57,48,40,91,66,35,29.94,29.79,17,8,27,0.00
2012-3-14,82,69,60,62,59,54,89,71,47,29.93,29.78,13,7,25,0.00
2012-3-15,79,69,62,62,60,57,90,75,49,29.97,29.88,13,6,22,0.00
2012-3-16,76,67,58,64,60,56,94,81,61,29.94,29.77,20,7,30,0.00
2012-3-17,79,70,64,65,62,59,86,76,61,29.80,29.71,22,12,33,0.00
2012-3-18,73,68,63,64,61,58,86,78,69,29.79,29.65,26,14,35,0.00
2012-3-19,69,59,54,61,54,51,91,85,75,29.68,29.52,24,12,35,0.47
2012-3-20,56,53,51,52,49,-100,93,90,81,29.81,29.64,13,4,17,0.32
2012-3-21,59,52,44,56,50,42,94,93,90,29.85,29.66,13,2,16,1.33
2012-3-22,56,48,42,50,44,-100,94,87,73,29.89,29.77,13,-4,18,0.73
2012-3-23,67,54,46,52,48,44,94,81,50,29.96,29.85,5,1,13,0.14
2012-3-24,75,58,43,55,48,40,92,74,43,30.02,29.95,7,1,12,0.00
2012-3-25,75,59,43,60,51,41,94,78,52,30.11,29.94,16,4,21,0.01
2012-3-26,78,66,56,62,56,50,83,72,54,29.97,29.77,20,11,30,0.01
2012-3-27,79,68,56,60,55,44,85,66,35,29.94,29.76,17,4,33,0.00
2012-3-28,77,64,53,65,58,48,90,79,60,29.94,29.78,14,4,22,0.00
2012-3-29,83,70,62,66,61,56,90,75,50,29.81,29.63,13,6,24,0.00
2012-3-30,80,64,46,58,52,44,93,70,31,29.84,29.73,8,1,12,0.00
2012-3-31,84,68,53,63,56,49,87,68,40,29.83,29.66,12,3,16,0.00
2012-4-1,84,72,63,69,62,59,92,74,54,29.67,29.41,17,8,28,0.00
2012-4-2,82,73,60,68,62,50,83,70,51,29.76,29.41,17,10,31,0.00
2012-4-3,69,59,51,57,52,48,90,79,61,29.93,29.75,9,2,20,0.18
2012-4-4,61,55,53,56,53,51,93,91,81,29.84,29.71,5,2,12,0.59
2012-4-5,55,53,47,52,50,44,94,90,85,30.02,29.76,4,1,10,0.04
2012-4-6,61,50,38,54,46,36,94,86,75,30.11,29.94,16,5,21,0.01
2012-4-7,66,58,44,55,48,38,93,71,44,30.33,29.91,12,5,23,0.35
2012-4-8,66,50,34,45,39,32,92,68,38,30.39,30.18,11,2,16,0.35
2012-4-9,70,55,40,55,46,37,92,75,49,30.20,30.06,8,2,15,0.01
2012-4-10,67,54,39,46,41,35,89,62,37,30.23,30.09,8,1,16,0.01
2012-4-11,59,53,48,43,37,31,66,55,46,30.27,30.10,11,3,22,0.00
2012-4-12,61,56,50,55,46,35,88,72,54,30.11,29.72,21,13,29,0.10
2012-4-13,75,66,53,59,52,46,90,64,36,29.82,29.65,22,6,34,0.01
2012-4-14,72,65,53,65,60,-100,93,84,74,29.79,29.37,30,12,46,0.01
2012-4-15,71,62,51,65,49,38,88,64,35,29.79,29.30,30,9,46,0.12
2012-4-16,63,51,43,48,42,38,82,71,57,30.20,29.80,13,4,19,0.01
2012-4-17,72,58,42,53,47,39,90,69,48,30.24,30.05,14,5,23,0.00
2012-4-18,78,65,52,58,52,47,85,65,47,30.06,29.81,12,7,20,0.00
2012-4-19,71,64,53,59,54,44,78,70,58,29.92,29.67,19,8,29,0.00
2012-4-20,64,53,41,45,41,36,84,65,42,30.09,29.91,8,4,20,0.00
2012-4-21,76,54,37,52,41,33,87,65,40,30.07,29.92,8,2,15,0.00
2012-4-22,66,52,41,44,39,35,88,63,35,30.25,30.03,10,3,19,0.00
2012-4-23,72,53,32,45,39,29,90,63,35,30.27,29.94,6,2,12,0.00
2012-4-24,93,70,50,62,52,43,80,56,30,29.95,29.52,9,4,16,0.00
2012-4-25,91,75,58,62,54,48,75,50,31,29.79,29.53,7,2,13,0.00
2012-4-26,82,69,48,63,55,45,90,64,44,29.95,29.79,13,3,17,0.00
2012-4-27,82,68,59,66,56,50,82,66,33,29.86,29.41,27,14,39,0.00
2012-4-28,72,59,46,55,49,-100,91,73,50,29.98,29.70,7,2,16,0.00
2012-4-29,68,58,54,61,54,49,94,87,76,29.98,29.90,4,1,12,0.48
2012-4-30,75,61,54,64,57,52,94,87,65,30.00,29.71,25,2,32,0.43
2012-5-1,81,70,59,70,63,56,92,79,66,29.76,29.57,17,9,29,0.43
2012-5-2,84,75,66,71,67,62,88,76,63,29.70,29.58,18,10,26,0.00
2012-5-3,85,75,68,71,67,63,88,76,57,29.80,29.67,18,6,33,0.00
2012-5-4,92,76,63,71,66,59,92,74,36,29.80,29.69,16,6,22,0.00
2012-5-5,90,77,66,70,66,-100,91,72,50,29.76,29.65,20,10,26,0.00
2012-5-6,77,72,62,71,65,55,89,78,65,29.99,29.67,14,5,25,0.00
2012-5-7,69,60,47,55,47,40,86,63,36,30.14,29.99,9,3,20,0.25
2012-5-8,76,59,43,51,44,39,90,61,28,30.12,29.98,9,2,16,0.25
2012-5-9,75,58,38,50,44,35,92,62,34,30.11,29.90,7,2,13,0.00
2012-5-10,86,70,55,56,50,46,73,52,29,29.90,29.76,15,8,24,0.00
2012-5-11,76,66,54,57,54,49,88,68,46,30.16,29.84,11,2,17,0.01
2012-5-12,70,57,49,55,48,-100,89,75,53,30.31,30.15,5,2,15,0.14
2012-5-13,76,60,44,53,48,42,93,68,36,30.28,30.14,3,0,10,0.01
2012-5-14,82,65,50,55,51,46,88,63,36,30.18,29.99,6,2,12,0.01
2012-5-15,88,71,54,58,52,46,83,56,28,30.04,29.95,7,2,13,0.00
2012-5-16,85,70,49,53,48,40,74,49,30,30.11,29.94,11,4,25,0.00
2012-5-17,92,77,62,57,51,46,66,43,22,29.95,29.74,22,12,31,0.00
2012-5-18,92,79,67,58,55,52,65,45,27,29.79,29.63,24,13,37,0.00
2012-5-19,88,76,64,64,58,-100,70,56,43,29.99,29.62,22,12,34,0.00
2012-5-20,80,42,55,54,-12,-100,70,26,31,30.22,29.98,9,-406,17,0.00
2012-5-21,82,67,47,48,46,42,87,50,28,30.28,30.06,11,4,17,0.00
2012-5-22,87,72,57,55,49,44,64,47,31,30.07,29.69,19,11,30,0.00
2012-5-23,95,81,70,62,58,52,62,46,33,29.68,29.36,30,17,40,0.00
2012-5-24,88,77,64,63,56,49,72,51,30,29.70,29.29,23,5,34,0.00
2012-5-25,91,75,66,73,62,49,91,67,49,29.84,29.70,19,7,27,0.01
2012-5-26,98,85,76,70,68,66,78,60,38,29.84,29.75,19,12,33,0.01
2012-5-27,93,82,73,68,64,61,73,57,40,29.82,29.61,24,14,37,0.00
2012-5-28,92,79,65,62,50,38,80,42,16,29.84,29.63,14,4,29,0.00
2012-5-29,90,74,54,57,49,39,66,41,29,29.97,29.82,12,2,15,0.00
2012-5-30,91,71,59,63,54,47,92,59,32,29.94,29.64,15,4,23,0.49
2012-5-31,71,61,50,60,50,43,93,69,41,30.08,29.83,12,4,21,0.49
2012-6-1,62,52,42,51,46,40,92,82,59,30.08,29.91,10,2,14,0.03
2012-6-2,57,50,49,52,48,46,92,90,84,29.95,29.91,3,1,5,0.03
2012-6-3,89,79,67,67,64,62,84,63,44,29.83,29.74,12,5,20,0.00
2012-6-4,98,79,60,70,61,54,93,61,28,29.93,29.80,5,1,12,0.00
2012-6-5,92,77,60,63,58,54,88,55,32,29.94,29.79,12,4,17,0.00
2012-6-6,90,74,57,59,56,53,87,57,31,29.98,29.85,19,8,26,0.00
2012-6-7,89,76,63,60,57,54,77,54,34,30.05,29.97,13,7,20,0.00
2012-6-8,89,75,59,58,54,50,86,54,27,30.06,29.83,14,6,22,0.00
2012-6-9,93,80,66,64,58,-100,67,51,36,29.85,29.58,23,12,33,0.00
2012-6-10,95,83,74,69,66,61,70,57,41,29.75,29.58,23,12,35,0.01
2012-6-11,90,77,62,63,54,45,86,50,23,30.05,29.74,10,2,20,0.01
2012-6-12,89,80,57,57,54,49,83,42,30,30.19,30.00,17,8,23,0.00
2012-6-13,93,78,61,64,57,52,73,51,35,30.07,29.79,18,10,31,0.00
2012-6-14,96,82,65,71,67,61,91,62,43,30.00,29.65,24,11,33,1.23
2012-6-15,86,74,64,69,64,62,93,75,48,30.00,29.76,13,2,17,2.28
2012-6-16,87,76,65,71,66,-100,92,74,51,30.00,29.89,7,2,21,0.34
2012-6-17,92,81,70,73,67,62,91,66,40,29.99,29.65,16,7,25,0.03
2012-6-18,94,83,72,71,68,64,80,61,44,29.68,29.59,23,12,35,0.00
2012-6-19,91,83,74,70,67,65,74,60,47,29.73,29.67,27,15,41,0.00
2012-6-20,87,79,67,70,68,63,87,68,57,29.99,29.72,19,12,31,0.00
2012-6-21,86,72,62,64,60,55,93,68,36,30.15,29.98,5,1,14,0.44
2012-6-22,88,74,59,63,59,55,90,62,38,30.08,29.87,15,6,22,0.04
2012-6-23,97,83,70,70,64,60,73,54,36,29.89,29.72,19,10,30,0.00
2012-6-24,102,88,76,69,66,64,67,50,30,29.86,29.79,15,7,24,0.00
2012-6-25,106,88,72,75,67,63,76,52,26,29.92,29.78,6,1,13,0.00
2012-6-26,104,89,73,74,68,63,86,57,28,29.81,29.65,19,8,26,0.00
2012-6-27,107,93,80,72,67,63,63,45,26,29.83,29.70,14,8,27,0.00
2012-6-28,105,91,75,70,65,59,72,45,23,29.93,29.83,12,6,22,0.00
2012-6-29,103,90,77,65,62,59,56,40,27,29.92,29.74,13,7,21,0.00
2012-6-30,103,90,77,68,64,58,62,44,30,29.87,29.72,14,7,21,0.00
2012-7-1,98,86,77,70,64,58,63,49,33,29.92,29.82,12,5,21,0.00
2012-7-2,97,86,75,69,66,63,76,53,37,29.93,29.82,13,7,21,0.00
2012-7-3,99,88,76,69,66,60,69,49,34,29.89,29.76,13,7,23,0.00
2012-7-4,101,89,78,69,63,58,57,43,30,29.86,29.77,15,9,25,0.00
2012-7-5,101,90,77,67,64,62,60,43,28,29.93,29.83,14,6,21,0.00
2012-7-6,103,91,81,67,64,60,53,41,28,29.99,29.89,12,6,18,0.00
2012-7-7,107,89,75,67,63,59,68,44,23,30.06,29.92,9,2,18,0.02
2012-7-8,92,81,70,74,69,65,89,69,46,30.10,29.98,13,2,19,0.07
2012-7-9,83,76,71,69,67,62,89,75,55,30.12,30.02,4,1,12,0.18
2012-7-10,93,80,68,68,63,56,87,61,31,30.11,29.99,5,1,13,0.01
2012-7-11,96,77,55,64,58,52,92,58,29,30.09,29.94,4,1,10,0.00
2012-7-12,99,83,62,65,60,57,90,53,27,30.00,29.90,11,1,15,0.00
2012-7-13,99,86,70,67,62,58,67,47,29,29.98,29.89,14,3,22,0.00
2012-7-14,104,86,67,67,63,60,80,50,25,30.02,29.90,7,2,11,0.00
2012-7-15,99,87,75,68,63,57,73,48,29,30.00,29.87,12,6,18,0.00
2012-7-16,96,85,73,70,65,58,77,53,36,29.94,29.78,12,6,19,0.00
2012-7-17,101,89,76,66,63,59,67,44,28,29.83,29.73,12,7,21,0.00
2012-7-18,106,92,81,68,63,59,52,39,25,29.90,29.79,12,5,24,0.00
2012-7-19,108,92,76,68,63,59,58,40,24,30.01,29.88,9,2,14,0.00
2012-7-20,106,90,70,66,62,57,72,43,21,30.06,29.95,13,4,18,0.00
2012-7-21,105,86,67,65,58,50,72,43,18,30.06,29.94,12,4,17,0.00
2012-7-22,104,89,73,65,60,54,55,39,27,30.02,29.94,12,4,22,0.00
2012-7-23,102,89,74,67,62,57,55,41,29,30.03,29.90,11,4,21,0.00
2012-7-24,103,91,80,67,64,62,58,42,29,29.94,29.76,16,8,27,0.00
2012-7-25,106,92,72,69,65,62,90,44,27,29.81,29.61,15,7,31,0.54
2012-7-26,97,82,71,72,69,66,92,69,37,29.91,29.74,5,1,14,0.60
2012-7-27,100,82,69,70,65,-100,91,61,31,30.03,29.91,4,-7,11,0.03
2012-7-28,105,87,73,71,61,-100,63,44,26,30.04,29.88,15,-1,21,0.00
2012-7-29,108,90,73,75,67,59,88,51,26,30.00,29.82,9,2,18,0.34
2012-7-30,101,86,72,70,66,61,86,53,33,29.93,29.82,11,1,16,0.01
2012-7-31,104,87,74,71,67,62,78,55,31,29.94,29.84,9,2,16,0.00
2012-8-1,105,87,73,69,65,62,85,52,27,29.97,29.73,13,2,24,0.04
2012-8-2,97,85,73,70,66,62,74,54,37,29.83,29.70,11,2,25,0.01
2012-8-3,101,85,73,70,68,65,83,59,32,29.83,29.69,13,2,18,0.00
2012-8-4,86,79,68,71,64,55,71,61,49,30.08,29.69,7,2,19,0.00
2012-8-5,96,75,53,60,54,50,91,56,24,30.24,30.06,5,1,11,0.00
2012-8-6,100,83,62,63,55,49,67,42,25,30.14,29.93,10,4,19,0.00
2012-8-7,90,80,67,66,58,50,84,49,30,30.02,29.89,8,2,18,0.06
2012-8-8,104,82,64,67,60,46,88,55,15,29.99,29.82,7,1,18,0.02
2012-8-9,91,77,62,67,59,53,81,57,33,30.02,29.90,8,2,17,0.00
2012-8-10,90,72,55,60,54,48,89,56,30,30.11,29.99,5,1,14,0.00
2012-8-11,91,74,57,54,50,-100,77,48,25,30.07,29.87,11,4,17,0.00
2012-8-12,93,81,67,61,56,47,66,43,31,29.99,29.85,8,3,19,0.00
2012-8-13,86,72,59,59,56,53,83,60,35,30.11,29.98,6,1,13,0.00
2012-8-14,76,68,63,63,60,55,93,78,59,30.06,29.88,14,4,21,0.67
2012-8-15,94,75,60,70,63,56,89,70,43,29.89,29.72,10,3,18,0.16
2012-8-16,82,72,63,68,57,50,81,60,42,30.12,29.78,9,2,19,0.00
2012-8-17,85,68,52,55,50,47,91,59,29,30.14,29.95,5,1,11,0.00
2012-8-18,87,72,60,61,52,46,79,51,35,30.01,29.85,11,2,15,0.01
2012-8-19,84,69,55,54,50,45,84,55,30,30.08,29.94,5,1,13,0.01
2012-8-20,90,69,48,55,47,43,86,52,23,30.06,29.91,7,1,12,0.00
2012-8-21,93,76,55,56,48,43,74,40,23,30.05,29.96,11,2,15,0.00
2012-8-22,91,78,63,62,54,48,78,46,26,30.04,29.89,13,4,25,0.00
2012-8-23,93,82,72,64,58,51,63,45,36,29.97,29.83,17,9,32,0.07
2012-8-24,81,72,66,70,66,59,93,80,50,29.93,29.77,17,8,26,0.58
2012-8-25,80,72,67,72,68,64,94,88,70,29.88,29.78,13,4,26,2.93
2012-8-26,87,70,68,69,59,-100,95,79,54,30.08,29.87,4,-50,11,0.02
2012-8-27,92,76,62,71,65,60,95,74,42,30.18,30.05,9,1,13,0.00
2012-8-28,93,76,59,66,61,57,94,66,33,30.16,29.98,7,1,14,0.00
2012-8-29,94,76,61,66,60,56,86,61,32,30.03,29.88,7,1,12,0.00
2012-8-30,99,79,66,63,60,56,85,58,26,29.96,29.88,8,1,14,0.00
2012-8-31,94,77,60,70,64,57,91,67,41,29.97,29.88,3,0,13,0.00
2012-9-1,94,77,60,72,66,58,94,72,40,30.03,29.91,5,0,10,0.00
2012-9-2,102,83,69,71,66,60,89,61,26,29.97,29.81,10,3,17,0.00
2012-9-3,105,85,71,71,67,64,81,58,27,29.86,29.76,9,2,15,0.00
2012-9-4,99,81,67,73,68,60,93,67,30,29.91,29.74,8,1,19,0.40
2012-9-5,92,77,64,71,66,61,93,72,43,29.92,29.81,12,1,17,0.34
2012-9-6,96,77,60,70,63,57,92,65,36,30.00,29.77,9,2,15,0.00
2012-9-7,81,67,54,63,57,51,90,71,49,30.12,29.78,6,1,21,0.56
2012-9-8,81,62,47,55,50,45,94,68,32,30.25,30.04,4,1,11,0.01
2012-9-9,80,64,50,53,50,46,87,63,33,30.22,30.06,3,0,12,0.00
2012-9-10,88,69,53,57,51,48,84,57,28,30.12,29.90,13,5,20,0.00
2012-9-11,93,77,62,54,50,47,64,42,26,29.96,29.82,18,8,31,0.00
2012-9-12,93,78,60,65,56,50,71,47,37,30.09,29.84,16,7,27,0.27
2012-9-13,58,56,54,54,52,51,92,88,81,30.38,30.16,5,1,13,0.56
2012-9-14,74,57,47,52,48,45,93,74,41,30.39,30.25,2,0,9,0.03
2012-9-15,72,56,46,63,52,44,93,85,69,30.28,30.08,7,0,11,0.00
2012-9-16,78,69,61,62,60,57,93,75,53,30.11,29.90,6,2,12,0.00
2012-9-17,67,61,52,61,56,47,92,84,73,30.09,29.86,6,2,13,0.00
2012-9-18,77,59,42,51,46,40,94,67,37,30.12,29.93,7,1,17,0.01
2012-9-19,91,71,57,57,49,44,69,49,29,29.98,29.80,9,4,15,0.00
2012-9-20,82,64,44,49,45,40,87,55,26,30.06,29.92,5,1,11,0.00
2012-9-21,85,69,53,51,46,43,74,46,25,29.96,29.86,8,3,20,0.00
2012-9-22,74,58,46,45,38,-100,84,53,26,30.25,29.96,6,2,15,0.00
2012-9-23,74,57,39,40,35,31,83,47,25,30.29,30.13,11,4,17,0.00
2012-9-24,84,64,45,58,49,38,85,60,38,30.14,29.78,8,1,17,0.00
2012-9-25,82,68,55,63,57,51,89,70,50,29.86,29.76,9,1,17,0.28
2012-9-26,71,65,58,64,61,56,93,88,76,30.12,29.80,17,2,27,1.22
2012-9-27,74,64,58,64,59,55,95,87,64,30.17,30.08,6,0,12,0.02
2012-9-28,73,62,55,63,57,52,95,85,56,30.17,30.08,3,0,9,0.01
2012-9-29,74,62,51,58,53,49,94,76,42,30.17,30.03,7,0,13,0.01
2012-9-30,75,58,49,55,51,47,94,80,40,30.06,29.90,2,0,6,0.01
2012-10-1,71,54,44,57,48,42,94,83,56,29.99,29.90,8,2,20,0.01
2012-10-2,76,60,39,53,42,37,93,55,27,30.03,29.85,4,1,17,0.01
2012-10-3,82,65,48,52,46,39,74,52,34,29.91,29.79,13,5,25,0.01
2012-10-4,70,57,49,53,42,36,72,58,46,30.28,29.85,11,3,23,0.00
2012-10-5,55,48,36,37,34,32,87,60,44,30.32,30.23,3,1,18,0.00
2012-10-6,48,43,37,38,33,29,88,68,50,30.37,30.27,4,1,11,0.00
2012-10-7,56,41,26,36,30,23,92,69,42,30.35,30.13,4,1,13,0.00
2012-10-8,72,52,36,40,34,29,78,54,28,30.13,29.85,11,4,19,0.00
2012-10-9,66,54,37,46,39,29,74,57,43,30.17,29.82,10,3,21,0.00
2012-10-10,68,48,29,34,30,25,87,57,27,30.27,30.06,7,1,12,0.00
2012-10-11,83,64,50,57,45,32,59,50,40,30.15,29.94,8,4,17,0.00
2012-10-12,59,53,48,57,43,36,94,72,46,30.24,29.93,12,2,17,0.10
2012-10-13,80,67,58,69,62,51,94,86,67,29.96,29.52,14,5,23,0.75
2012-10-14,75,62,54,56,48,45,89,63,36,30.04,29.57,10,4,19,0.12
2012-10-15,85,64,48,54,48,42,83,59,30,30.02,29.74,12,2,18,0.00
2012-10-16,83,68,56,55,48,44,65,50,30,29.74,29.44,9,2,17,0.00
2012-10-17,69,61,44,56,44,29,88,56,28,29.79,29.38,13,4,25,0.01
2012-10-18,64,54,43,32,28,23,61,38,25,29.83,29.73,18,7,34,0.01
2012-10-19,65,52,39,37,31,25,76,45,29,29.90,29.79,11,5,24,0.00
2012-10-20,85,60,38,50,39,31,80,51,23,29.81,29.62,7,2,17,0.00
2012-10-21,86,70,56,66,59,49,92,70,47,29.70,29.61,16,6,23,0.00
2012-10-22,75,63,52,66,58,50,95,84,74,29.83,29.63,10,2,24,0.00
2012-10-23,88,70,50,67,57,47,94,69,29,29.79,29.62,14,3,27,0.00
2012-10-24,82,71,63,67,62,55,87,73,53,29.73,29.63,13,5,25,0.00
2012-10-25,63,46,33,57,38,28,91,75,51,30.33,29.62,13,5,26,0.06
2012-10-26,48,37,25,29,27,20,84,67,46,30.54,30.32,6,2,16,0.02
2012-10-27,50,36,22,32,26,18,90,70,44,30.40,30.20,9,2,14,0.00
2012-10-28,56,43,27,32,29,23,87,60,37,30.28,30.16,10,4,19,0.00
2012-10-29,69,54,43,37,31,26,55,44,29,30.19,30.01,13,6,22,0.00
2012-10-30,72,56,38,43,37,31,76,50,34,30.01,29.89,7,1,12,0.00
2012-10-31,71,48,29,42,35,26,90,65,33,30.06,29.93,7,1,13,0.00
2012-11-1,80,55,37,45,38,31,83,58,26,30.03,29.88,8,1,12,0.00
2012-11-2,75,60,49,47,43,36,70,55,34,30.02,29.77,14,6,26,0.00
2012-11-3,64,46,35,41,35,29,86,67,42,30.22,29.99,5,1,11,0.00
2012-11-4,72,51,31,41,35,27,90,59,27,30.18,29.96,5,1,17,0.00
2012-11-5,57,46,35,41,36,30,86,69,52,30.14,30.04,9,2,19,0.00
2012-11-6,66,47,31,40,31,21,88,59,26,30.12,30.03,11,2,20,0.00
2012-11-7,64,45,27,34,28,20,80,54,31,30.19,29.98,10,3,15,0.00
2012-11-8,76,58,47,48,39,29,78,49,37,29.99,29.75,15,6,29,0.00
2012-11-9,80,61,40,58,50,37,91,69,43,29.76,29.61,20,6,31,0.00
2012-11-10,75,68,55,59,56,44,91,65,56,29.68,29.52,28,13,40,0.77
2012-11-11,52,34,25,47,25,17,85,71,46,30.25,29.66,12,6,23,0.77
2012-11-12,51,34,22,27,21,17,83,62,29,30.39,30.25,10,2,16,0.00
2012-11-13,57,42,28,36,28,22,83,60,37,30.37,30.22,8,3,20,0.00
2012-11-14,57,41,30,35,28,-100,83,64,39,30.32,30.18,10,3,19,0.00
2012-11-15,59,44,31,38,32,27,86,65,41,30.38,30.17,9,1,12,0.00
2012-11-16,62,41,25,41,31,22,91,71,37,30.41,30.28,10,2,16,0.00
2012-11-17,63,50,40,38,34,30,72,54,39,30.29,30.11,20,10,33,0.00
2012-11-18,64,53,46,41,34,30,54,49,42,30.17,29.98,19,12,32,0.00
2012-11-19,73,57,37,48,42,32,88,61,35,30.14,30.04,4,1,10,0.00
2012-11-20,50,37,31,39,32,28,89,83,66,30.18,30.13,6,1,10,0.00
2012-11-21,75,60,47,50,44,38,76,58,37,30.15,29.87,14,8,29,0.00
2012-11-22,73,60,39,53,42,29,69,54,34,30.33,29.82,8,3,18,0.00
2012-11-23,43,35,21,30,20,15,80,56,38,30.55,30.30,8,3,17,0.00
2012-11-24,58,41,20,31,23,15,82,52,32,30.40,29.82,16,5,26,0.00
2012-11-25,58,43,27,37,29,20,81,59,42,30.01,29.83,3,0,15,0.00
2012-11-26,44,33,20,28,25,14,86,73,49,30.46,30.01,9,1,18,0.00
2012-11-27,47,29,12,28,20,8,86,71,46,30.47,30.19,9,2,20,0.00
2012-11-28,56,37,19,35,27,15,87,68,41,30.34,30.06,11,3,18,0.00
2012-11-29,64,46,32,43,36,28,88,69,45,30.07,29.90,13,2,23,0.00
2012-11-30,64,43,24,44,35,21,91,75,44,30.08,29.89,9,2,10,0.00
2012-12-1,64,55,38,55,50,36,93,82,62,29.91,29.76,11,2,19,0.00
2012-12-2,68,50,33,48,41,31,93,74,42,30.00,29.71,18,4,32,0.01
2012-12-3,64,58,45,56,46,34,81,64,37,30.08,29.57,18,5,32,0.01
2012-12-4,65,42,24,35,26,20,86,58,25,30.30,30.09,4,0,11,0.00
2012-12-5,62,46,29,31,25,21,75,46,24,30.29,29.89,20,7,29,0.00
2012-12-6,52,47,37,45,34,-100,83,66,45,29.93,29.83,14,4,23,0.00
2012-12-7,45,35,25,37,30,21,88,81,70,29.96,29.82,2,0,5,0.00
2012-12-8,48,35,20,39,30,17,90,82,66,29.96,29.78,10,3,14,0.00
2012-12-9,42,32,20,40,21,7,92,65,46,30.19,29.81,13,7,27,0.00
2012-12-10,37,22,7,8,5,1,75,50,28,30.20,29.91,11,2,22,0.00
2012-12-11,48,29,13,23,13,4,72,52,36,30.10,29.97,5,0,11,0.00
2012-12-12,43,33,27,20,16,14,59,51,37,30.05,29.97,12,5,24,0.00
2012-12-13,57,44,35,29,24,19,58,45,32,30.06,29.94,11,5,25,0.00
2012-12-14,57,48,42,44,36,27,89,63,52,29.99,29.41,21,10,34,0.07
2012-12-15,59,48,35,44,41,32,91,78,56,29.70,29.37,17,3,28,0.07
2012-12-16,45,33,27,35,29,25,93,86,62,29.80,29.65,7,0,12,0.01
2012-12-17,55,38,22,33,28,20,92,71,35,29.80,29.57,11,2,19,0.01
2012-12-18,60,42,29,31,26,20,83,57,26,29.81,29.57,7,1,17,0.00
2012-12-19,47,41,30,38,32,27,92,71,54,29.81,29.44,19,6,28,0.06
2012-12-20,35,26,14,28,21,10,93,81,53,30.26,29.62,17,7,32,0.07
2012-12-21,44,27,11,29,19,7,86,72,48,30.30,30.13,3,0,5,0.02
2012-12-22,50,34,21,30,23,15,86,67,42,30.12,29.90,3,0,7,0.01
2012-12-23,30,24,17,26,19,14,87,82,73,30.01,29.89,5,1,11,0.00
2012-12-24,27,20,15,16,13,10,84,74,59,30.08,30.00,6,1,14,0.00
2012-12-25,19,17,11,13,9,5,79,71,59,30.29,30.07,7,3,18,0.00
2012-12-26,26,15,6,13,8,2,82,72,51,30.30,30.04,6,1,10,0.00
2012-12-27,32,26,18,23,19,12,84,75,63,30.06,29.84,15,4,21,0.00
2012-12-28,28,23,13,22,15,8,82,71,54,30.14,29.94,10,4,18,0.00
2012-12-29,45,22,6,23,12,2,84,69,37,30.29,30.14,5,1,13,0.00
2012-12-30,48,36,20,25,21,12,78,56,36,30.28,30.05,12,5,24,0.00
2012-12-31,37,28,22,27,22,19,90,80,55,30.15,29.98,5,0,11,0.00
2013-1-1,27,19,8,20,14,4,89,83,68,30.30,30.14,0,0,7,0.18